sensor_id;sensor_type;location;lat;lon;timestamp;temperature;humidity
53904;DHT22;39812;52.430;16.936;2022-11-09T00:01:33;8.30;99.90
53904;DHT22;39812;52.430;16.936;2022-11-09T00:04:00;8.30;99.90
53904;DHT22;39812;52.430;16.936;2022-11-09T00:06:27;8.30;99.90
53904;DHT22;39812;52.430;16.936;2022-11-09T00:08:52;8.30;99.90
53904;DHT22;39812;52.430;16.936;2022-11-09T00:11:18;8.30;99.90
53904;DHT22;39812;52.430;16.936;2022-11-09T00:13:45;8.40;99.90
53904;DHT22;39812;52.430;16.936;2022-11-09T00:16:13;8.40;99.90
53904;DHT22;39812;52.430;16.936;2022-11-09T00:18:39;8.40;99.90
53904;DHT22;39812;52.430;16.936;2022-11-09T00:21:06;8.50;99.90
53904;DHT22;39812;52.430;16.936;2022-11-09T00:23:32;8.50;99.90
53904;DHT22;39812;52.430;16.936;2022-11-09T00:26:07;8.50;99.90
53904;DHT22;39812;52.430;16.936;2022-11-09T00:28:33;8.60;99.90
53904;DHT22;39812;52.430;16.936;2022-11-09T00:31:06;8.50;99.90
53904;DHT22;39812;52.430;16.936;2022-11-09T00:33:32;8.60;99.90
53904;DHT22;39812;52.430;16.936;2022-11-09T00:35:57;8.60;99.90
53904;DHT22;39812;52.430;16.936;2022-11-09T00:38:23;8.60;99.90
53904;DHT22;39812;52.430;16.936;2022-11-09T00:40:48;8.60;99.90
53904;DHT22;39812;52.430;16.936;2022-11-09T00:43:14;8.50;99.90
53904;DHT22;39812;52.430;16.936;2022-11-09T00:45:40;8.60;99.90
53904;DHT22;39812;52.430;16.936;2022-11-09T00:48:07;8.60;99.90
53904;DHT22;39812;52.430;16.936;2022-11-09T00:50:32;8.60;99.90
53904;DHT22;39812;52.430;16.936;2022-11-09T00:52:59;8.60;99.90
53904;DHT22;39812;52.430;16.936;2022-11-09T00:55:24;8.60;99.90
53904;DHT22;39812;52.430;16.936;2022-11-09T00:57:50;8.60;99.90
53904;DHT22;39812;52.430;16.936;2022-11-09T01:00:20;8.60;99.90
53904;DHT22;39812;52.430;16.936;2022-11-09T01:02:48;8.60;99.90
53904;DHT22;39812;52.430;16.936;2022-11-09T01:05:13;8.60;99.90
53904;DHT22;39812;52.430;16.936;2022-11-09T01:07:39;8.60;99.90
53904;DHT22;39812;52.430;16.936;2022-11-09T01:10:05;8.60;99.90
53904;DHT22;39812;52.430;16.936;2022-11-09T01:12:31;8.60;99.90
53904;DHT22;39812;52.430;16.936;2022-11-09T01:14:57;8.60;99.90
53904;DHT22;39812;52.430;16.936;2022-11-09T01:17:23;8.60;99.90
53904;DHT22;39812;52.430;16.936;2022-11-09T01:19:49;8.60;99.90
53904;DHT22;39812;52.430;16.936;2022-11-09T01:22:15;8.60;99.90
53904;DHT22;39812;52.430;16.936;2022-11-09T01:24:41;8.60;99.90
53904;DHT22;39812;52.430;16.936;2022-11-09T01:27:06;8.60;99.90
53904;DHT22;39812;52.430;16.936;2022-11-09T01:29:32;8.60;99.90
53904;DHT22;39812;52.430;16.936;2022-11-09T01:31:57;8.60;99.90
53904;DHT22;39812;52.430;16.936;2022-11-09T01:34:23;8.60;99.90
53904;DHT22;39812;52.430;16.936;2022-11-09T01:36:51;8.60;99.90
53904;DHT22;39812;52.430;16.936;2022-11-09T01:39:18;8.60;99.90
53904;DHT22;39812;52.430;16.936;2022-11-09T01:41:44;8.60;99.90
53904;DHT22;39812;52.430;16.936;2022-11-09T01:44:12;8.50;99.90
53904;DHT22;39812;52.430;16.936;2022-11-09T01:46:47;8.50;99.90
53904;DHT22;39812;52.430;16.936;2022-11-09T01:49:30;8.50;99.90
53904;DHT22;39812;52.430;16.936;2022-11-09T01:52:02;8.50;99.90
53904;DHT22;39812;52.430;16.936;2022-11-09T01:54:32;8.40;99.90
53904;DHT22;39812;52.430;16.936;2022-11-09T01:57:06;8.40;99.90
53904;DHT22;39812;52.430;16.936;2022-11-09T01:59:34;8.40;99.90
53904;DHT22;39812;52.430;16.936;2022-11-09T02:02:01;8.40;99.90
53904;DHT22;39812;52.430;16.936;2022-11-09T02:04:49;8.40;99.90
53904;DHT22;39812;52.430;16.936;2022-11-09T02:07:17;8.40;99.90
53904;DHT22;39812;52.430;16.936;2022-11-09T02:09:48;8.40;99.90
53904;DHT22;39812;52.430;16.936;2022-11-09T02:12:16;8.40;99.90
53904;DHT22;39812;52.430;16.936;2022-11-09T02:14:43;8.30;99.90
53904;DHT22;39812;52.430;16.936;2022-11-09T02:17:10;8.30;99.90
53904;DHT22;39812;52.430;16.936;2022-11-09T02:19:36;8.30;99.90
53904;DHT22;39812;52.430;16.936;2022-11-09T02:22:02;8.30;99.90
53904;DHT22;39812;52.430;16.936;2022-11-09T02:24:27;8.20;99.90
53904;DHT22;39812;52.430;16.936;2022-11-09T02:26:54;8.20;99.90
53904;DHT22;39812;52.430;16.936;2022-11-09T02:29:25;8.20;99.90
53904;DHT22;39812;52.430;16.936;2022-11-09T02:31:59;8.20;99.90
53904;DHT22;39812;52.430;16.936;2022-11-09T02:34:25;8.20;99.90
53904;DHT22;39812;52.430;16.936;2022-11-09T02:36:51;8.10;99.90
53904;DHT22;39812;52.430;16.936;2022-11-09T02:39:18;8.10;99.90
53904;DHT22;39812;52.430;16.936;2022-11-09T02:41:57;8.10;99.90
53904;DHT22;39812;52.430;16.936;2022-11-09T02:44:25;8.10;99.90
53904;DHT22;39812;52.430;16.936;2022-11-09T02:46:51;8.10;99.90
53904;DHT22;39812;52.430;16.936;2022-11-09T02:49:17;8.20;99.90
53904;DHT22;39812;52.430;16.936;2022-11-09T02:51:42;8.20;99.90
53904;DHT22;39812;52.430;16.936;2022-11-09T02:54:07;8.30;99.90
53904;DHT22;39812;52.430;16.936;2022-11-09T02:56:33;8.30;99.90
53904;DHT22;39812;52.430;16.936;2022-11-09T02:58:59;8.30;99.90
53904;DHT22;39812;52.430;16.936;2022-11-09T03:01:24;8.30;99.90
53904;DHT22;39812;52.430;16.936;2022-11-09T03:03:50;8.40;99.90
53904;DHT22;39812;52.430;16.936;2022-11-09T03:06:15;8.40;99.90
53904;DHT22;39812;52.430;16.936;2022-11-09T03:08:41;8.40;99.90
53904;DHT22;39812;52.430;16.936;2022-11-09T03:11:06;8.40;99.90
53904;DHT22;39812;52.430;16.936;2022-11-09T03:13:32;8.30;99.90
53904;DHT22;39812;52.430;16.936;2022-11-09T03:16:05;8.30;99.90
53904;DHT22;39812;52.430;16.936;2022-11-09T03:18:31;8.40;99.90
53904;DHT22;39812;52.430;16.936;2022-11-09T03:21:02;8.30;99.90
53904;DHT22;39812;52.430;16.936;2022-11-09T03:23:27;8.30;99.90
53904;DHT22;39812;52.430;16.936;2022-11-09T03:25:53;8.30;99.90
53904;DHT22;39812;52.430;16.936;2022-11-09T03:28:19;8.30;99.90
53904;DHT22;39812;52.430;16.936;2022-11-09T03:30:44;8.40;99.90
53904;DHT22;39812;52.430;16.936;2022-11-09T03:33:10;8.40;99.90
53904;DHT22;39812;52.430;16.936;2022-11-09T03:35:36;8.40;99.90
53904;DHT22;39812;52.430;16.936;2022-11-09T03:38:02;8.40;99.90
53904;DHT22;39812;52.430;16.936;2022-11-09T03:40:29;8.40;99.90
53904;DHT22;39812;52.430;16.936;2022-11-09T03:42:54;8.50;99.90
53904;DHT22;39812;52.430;16.936;2022-11-09T03:45:20;8.40;99.90
53904;DHT22;39812;52.430;16.936;2022-11-09T03:47:46;8.40;99.90
53904;DHT22;39812;52.430;16.936;2022-11-09T03:50:13;8.50;99.90
53904;DHT22;39812;52.430;16.936;2022-11-09T03:52:39;8.50;99.90
53904;DHT22;39812;52.430;16.936;2022-11-09T03:55:05;8.50;99.90
53904;DHT22;39812;52.430;16.936;2022-11-09T03:57:31;8.40;99.90
53904;DHT22;39812;52.430;16.936;2022-11-09T03:59:57;8.50;99.90
53904;DHT22;39812;52.430;16.936;2022-11-09T04:02:22;8.50;99.90
53904;DHT22;39812;52.430;16.936;2022-11-09T04:04:48;8.40;99.90
53904;DHT22;39812;52.430;16.936;2022-11-09T04:07:14;8.40;99.90
53904;DHT22;39812;52.430;16.936;2022-11-09T04:09:39;8.30;99.90
53904;DHT22;39812;52.430;16.936;2022-11-09T04:12:05;8.20;99.90
53904;DHT22;39812;52.430;16.936;2022-11-09T04:14:30;8.20;99.90
53904;DHT22;39812;52.430;16.936;2022-11-09T04:16:56;8.20;99.90
53904;DHT22;39812;52.430;16.936;2022-11-09T04:19:21;8.10;99.90
53904;DHT22;39812;52.430;16.936;2022-11-09T04:21:47;8.10;99.90
53904;DHT22;39812;52.430;16.936;2022-11-09T04:24:13;8.20;99.90
53904;DHT22;39812;52.430;16.936;2022-11-09T04:26:38;8.10;99.90
53904;DHT22;39812;52.430;16.936;2022-11-09T04:29:04;8.20;99.90
53904;DHT22;39812;52.430;16.936;2022-11-09T04:31:29;8.10;99.90
53904;DHT22;39812;52.430;16.936;2022-11-09T04:33:55;8.20;99.90
53904;DHT22;39812;52.430;16.936;2022-11-09T04:36:20;8.20;99.90
53904;DHT22;39812;52.430;16.936;2022-11-09T04:38:46;8.20;99.90
53904;DHT22;39812;52.430;16.936;2022-11-09T04:41:11;8.20;99.90
53904;DHT22;39812;52.430;16.936;2022-11-09T04:43:37;8.20;99.90
53904;DHT22;39812;52.430;16.936;2022-11-09T04:46:03;8.20;99.90
53904;DHT22;39812;52.430;16.936;2022-11-09T04:48:29;8.10;99.90
53904;DHT22;39812;52.430;16.936;2022-11-09T04:51:03;8.20;99.90
53904;DHT22;39812;52.430;16.936;2022-11-09T04:53:29;8.10;99.90
53904;DHT22;39812;52.430;16.936;2022-11-09T04:55:55;8.10;99.90
53904;DHT22;39812;52.430;16.936;2022-11-09T04:58:21;8.10;99.90
53904;DHT22;39812;52.430;16.936;2022-11-09T05:00:47;8.00;99.90
53904;DHT22;39812;52.430;16.936;2022-11-09T05:03:12;8.00;99.90
53904;DHT22;39812;52.430;16.936;2022-11-09T05:05:38;7.90;99.90
53904;DHT22;39812;52.430;16.936;2022-11-09T05:08:04;7.90;99.90
53904;DHT22;39812;52.430;16.936;2022-11-09T05:10:30;7.90;99.90
53904;DHT22;39812;52.430;16.936;2022-11-09T05:13:08;7.90;99.90
53904;DHT22;39812;52.430;16.936;2022-11-09T05:15:35;7.90;99.90
53904;DHT22;39812;52.430;16.936;2022-11-09T05:18:00;7.80;99.90
53904;DHT22;39812;52.430;16.936;2022-11-09T05:20:26;7.90;99.90
53904;DHT22;39812;52.430;16.936;2022-11-09T05:22:52;7.80;99.90
53904;DHT22;39812;52.430;16.936;2022-11-09T05:25:36;7.80;99.90
53904;DHT22;39812;52.430;16.936;2022-11-09T05:28:02;7.80;99.90
53904;DHT22;39812;52.430;16.936;2022-11-09T05:30:28;7.80;99.90
53904;DHT22;39812;52.430;16.936;2022-11-09T05:32:53;7.80;99.90
53904;DHT22;39812;52.430;16.936;2022-11-09T05:35:19;7.80;99.90
53904;DHT22;39812;52.430;16.936;2022-11-09T05:37:48;7.80;99.90
53904;DHT22;39812;52.430;16.936;2022-11-09T05:40:14;7.80;99.90
53904;DHT22;39812;52.430;16.936;2022-11-09T05:42:40;7.80;99.90
53904;DHT22;39812;52.430;16.936;2022-11-09T05:45:08;7.80;99.90
53904;DHT22;39812;52.430;16.936;2022-11-09T05:47:38;7.80;99.90
53904;DHT22;39812;52.430;16.936;2022-11-09T05:50:04;7.90;99.90
53904;DHT22;39812;52.430;16.936;2022-11-09T05:52:30;7.80;99.90
53904;DHT22;39812;52.430;16.936;2022-11-09T05:54:55;7.90;99.90
53904;DHT22;39812;52.430;16.936;2022-11-09T05:57:21;7.90;99.90
53904;DHT22;39812;52.430;16.936;2022-11-09T05:59:47;7.80;99.90
53904;DHT22;39812;52.430;16.936;2022-11-09T06:02:12;7.80;99.90
53904;DHT22;39812;52.430;16.936;2022-11-09T06:04:37;7.80;99.90
53904;DHT22;39812;52.430;16.936;2022-11-09T06:07:03;7.80;99.90
53904;DHT22;39812;52.430;16.936;2022-11-09T06:09:28;7.80;99.90
53904;DHT22;39812;52.430;16.936;2022-11-09T06:11:54;7.80;99.90
53904;DHT22;39812;52.430;16.936;2022-11-09T06:14:19;7.80;99.90
53904;DHT22;39812;52.430;16.936;2022-11-09T06:16:45;7.80;99.90
53904;DHT22;39812;52.430;16.936;2022-11-09T06:19:10;7.90;99.90
53904;DHT22;39812;52.430;16.936;2022-11-09T06:21:36;7.90;99.90
53904;DHT22;39812;52.430;16.936;2022-11-09T06:24:01;7.90;99.90
53904;DHT22;39812;52.430;16.936;2022-11-09T06:26:27;7.90;99.90
53904;DHT22;39812;52.430;16.936;2022-11-09T06:28:52;8.00;99.90
53904;DHT22;39812;52.430;16.936;2022-11-09T06:31:17;8.00;99.90
53904;DHT22;39812;52.430;16.936;2022-11-09T06:33:45;8.10;99.90
53904;DHT22;39812;52.430;16.936;2022-11-09T06:36:11;8.10;99.90
53904;DHT22;39812;52.430;16.936;2022-11-09T06:38:36;8.10;99.90
53904;DHT22;39812;52.430;16.936;2022-11-09T06:41:02;8.20;99.90
53904;DHT22;39812;52.430;16.936;2022-11-09T06:43:27;8.30;99.90
53904;DHT22;39812;52.430;16.936;2022-11-09T06:45:53;8.30;99.90
53904;DHT22;39812;52.430;16.936;2022-11-09T06:48:19;8.40;99.90
53904;DHT22;39812;52.430;16.936;2022-11-09T06:50:44;8.40;99.90
53904;DHT22;39812;52.430;16.936;2022-11-09T06:53:12;8.50;99.90
53904;DHT22;39812;52.430;16.936;2022-11-09T06:55:38;8.50;99.90
53904;DHT22;39812;52.430;16.936;2022-11-09T06:58:06;8.60;99.90
53904;DHT22;39812;52.430;16.936;2022-11-09T07:00:31;8.80;99.90
53904;DHT22;39812;52.430;16.936;2022-11-09T07:02:57;8.80;99.90
53904;DHT22;39812;52.430;16.936;2022-11-09T07:05:22;9.00;99.90
53904;DHT22;39812;52.430;16.936;2022-11-09T07:07:48;9.10;99.90
53904;DHT22;39812;52.430;16.936;2022-11-09T07:10:14;9.20;99.90
53904;DHT22;39812;52.430;16.936;2022-11-09T07:12:39;9.30;99.90
53904;DHT22;39812;52.430;16.936;2022-11-09T07:15:05;9.40;99.90
53904;DHT22;39812;52.430;16.936;2022-11-09T07:17:31;9.40;99.90
53904;DHT22;39812;52.430;16.936;2022-11-09T07:19:57;9.50;99.90
53904;DHT22;39812;52.430;16.936;2022-11-09T07:22:23;9.60;99.90
53904;DHT22;39812;52.430;16.936;2022-11-09T07:24:48;9.70;99.90
53904;DHT22;39812;52.430;16.936;2022-11-09T07:27:14;9.70;99.90
53904;DHT22;39812;52.430;16.936;2022-11-09T07:29:39;9.80;99.90
53904;DHT22;39812;52.430;16.936;2022-11-09T07:32:05;10.00;99.90
53904;DHT22;39812;52.430;16.936;2022-11-09T07:34:30;10.10;99.90
53904;DHT22;39812;52.430;16.936;2022-11-09T07:36:56;10.20;99.90
53904;DHT22;39812;52.430;16.936;2022-11-09T07:39:21;10.20;99.90
53904;DHT22;39812;52.430;16.936;2022-11-09T07:41:47;10.20;99.90
53904;DHT22;39812;52.430;16.936;2022-11-09T07:44:14;10.30;99.90
53904;DHT22;39812;52.430;16.936;2022-11-09T07:46:48;10.40;99.90
53904;DHT22;39812;52.430;16.936;2022-11-09T07:49:15;10.40;99.90
53904;DHT22;39812;52.430;16.936;2022-11-09T07:51:41;10.40;99.90
53904;DHT22;39812;52.430;16.936;2022-11-09T07:54:07;10.40;99.90
53904;DHT22;39812;52.430;16.936;2022-11-09T07:56:33;10.40;99.90
53904;DHT22;39812;52.430;16.936;2022-11-09T07:58:59;10.50;99.90
53904;DHT22;39812;52.430;16.936;2022-11-09T08:01:24;10.60;99.90
53904;DHT22;39812;52.430;16.936;2022-11-09T08:03:51;10.70;99.90
53904;DHT22;39812;52.430;16.936;2022-11-09T08:06:17;10.80;99.90
53904;DHT22;39812;52.430;16.936;2022-11-09T08:08:42;10.80;99.90
53904;DHT22;39812;52.430;16.936;2022-11-09T08:11:08;10.90;99.90
53904;DHT22;39812;52.430;16.936;2022-11-09T08:13:33;10.90;99.90
53904;DHT22;39812;52.430;16.936;2022-11-09T08:16:03;11.10;99.90
53904;DHT22;39812;52.430;16.936;2022-11-09T08:18:28;11.20;99.90
53904;DHT22;39812;52.430;16.936;2022-11-09T08:20:54;11.20;99.90
53904;DHT22;39812;52.430;16.936;2022-11-09T08:23:20;11.20;99.90
53904;DHT22;39812;52.430;16.936;2022-11-09T08:25:47;11.20;99.90
53904;DHT22;39812;52.430;16.936;2022-11-09T08:28:13;11.10;99.90
53904;DHT22;39812;52.430;16.936;2022-11-09T08:30:41;11.30;99.90
53904;DHT22;39812;52.430;16.936;2022-11-09T08:33:07;11.30;99.90
53904;DHT22;39812;52.430;16.936;2022-11-09T08:35:33;11.30;99.90
53904;DHT22;39812;52.430;16.936;2022-11-09T08:38:03;11.30;99.90
53904;DHT22;39812;52.430;16.936;2022-11-09T08:40:30;11.40;99.90
53904;DHT22;39812;52.430;16.936;2022-11-09T08:43:03;11.40;99.90
53904;DHT22;39812;52.430;16.936;2022-11-09T08:45:31;11.50;99.90
53904;DHT22;39812;52.430;16.936;2022-11-09T08:47:57;11.70;99.90
53904;DHT22;39812;52.430;16.936;2022-11-09T08:50:24;11.70;99.90
53904;DHT22;39812;52.430;16.936;2022-11-09T08:52:49;11.80;99.90
53904;DHT22;39812;52.430;16.936;2022-11-09T08:55:15;11.90;99.90
53904;DHT22;39812;52.430;16.936;2022-11-09T08:57:40;12.10;99.90
53904;DHT22;39812;52.430;16.936;2022-11-09T09:00:06;12.30;99.90
53904;DHT22;39812;52.430;16.936;2022-11-09T09:02:32;12.40;99.90
53904;DHT22;39812;52.430;16.936;2022-11-09T09:04:58;12.50;99.90
53904;DHT22;39812;52.430;16.936;2022-11-09T09:07:23;12.50;99.90
53904;DHT22;39812;52.430;16.936;2022-11-09T09:09:49;12.40;99.90
53904;DHT22;39812;52.430;16.936;2022-11-09T09:12:15;12.40;99.90
53904;DHT22;39812;52.430;16.936;2022-11-09T09:14:40;12.50;99.90
53904;DHT22;39812;52.430;16.936;2022-11-09T09:17:06;12.60;99.90
53904;DHT22;39812;52.430;16.936;2022-11-09T09:19:31;12.60;99.90
53904;DHT22;39812;52.430;16.936;2022-11-09T09:21:57;12.60;99.90
53904;DHT22;39812;52.430;16.936;2022-11-09T09:24:23;12.80;99.90
53904;DHT22;39812;52.430;16.936;2022-11-09T09:26:49;12.80;99.90
53904;DHT22;39812;52.430;16.936;2022-11-09T09:29:14;12.90;99.90
53904;DHT22;39812;52.430;16.936;2022-11-09T09:31:40;12.90;99.90
53904;DHT22;39812;52.430;16.936;2022-11-09T09:34:06;13.10;99.90
53904;DHT22;39812;52.430;16.936;2022-11-09T09:36:32;13.10;99.90
53904;DHT22;39812;52.430;16.936;2022-11-09T09:38:59;13.30;99.90
53904;DHT22;39812;52.430;16.936;2022-11-09T09:44:19;13.30;99.90
53904;DHT22;39812;52.430;16.936;2022-11-09T09:46:54;13.40;99.90
53904;DHT22;39812;52.430;16.936;2022-11-09T09:49:26;13.40;99.90
53904;DHT22;39812;52.430;16.936;2022-11-09T09:51:54;13.20;99.90
53904;DHT22;39812;52.430;16.936;2022-11-09T09:54:24;13.20;99.90
53904;DHT22;39812;52.430;16.936;2022-11-09T09:56:50;13.10;99.90
53904;DHT22;39812;52.430;16.936;2022-11-09T09:59:26;13.10;99.90
53904;DHT22;39812;52.430;16.936;2022-11-09T10:01:55;13.10;99.90
53904;DHT22;39812;52.430;16.936;2022-11-09T10:04:35;13.10;99.90
53904;DHT22;39812;52.430;16.936;2022-11-09T10:07:11;13.20;99.90
53904;DHT22;39812;52.430;16.936;2022-11-09T10:10:17;13.20;99.90
53904;DHT22;39812;52.430;16.936;2022-11-09T10:13:13;13.10;99.90
53904;DHT22;39812;52.430;16.936;2022-11-09T10:18:29;13.30;99.90
53904;DHT22;39812;52.430;16.936;2022-11-09T10:29:21;13.90;99.90
53904;DHT22;39812;52.430;16.936;2022-11-09T10:31:48;14.00;99.90
53904;DHT22;39812;52.430;16.936;2022-11-09T10:34:29;14.10;99.90
53904;DHT22;39812;52.430;16.936;2022-11-09T10:37:19;14.30;99.90
53904;DHT22;39812;52.430;16.936;2022-11-09T10:39:53;14.30;99.90
53904;DHT22;39812;52.430;16.936;2022-11-09T10:42:20;14.00;99.90
53904;DHT22;39812;52.430;16.936;2022-11-09T10:44:45;14.10;99.90
53904;DHT22;39812;52.430;16.936;2022-11-09T10:47:13;14.10;99.90
53904;DHT22;39812;52.430;16.936;2022-11-09T10:49:41;14.30;99.90
53904;DHT22;39812;52.430;16.936;2022-11-09T10:52:30;14.30;99.90
53904;DHT22;39812;52.430;16.936;2022-11-09T10:57:58;14.00;99.90
53904;DHT22;39812;52.430;16.936;2022-11-09T11:00:25;14.10;99.90
53904;DHT22;39812;52.430;16.936;2022-11-09T11:02:52;14.00;99.90
53904;DHT22;39812;52.430;16.936;2022-11-09T11:05:19;14.00;99.90
53904;DHT22;39812;52.430;16.936;2022-11-09T11:07:45;13.90;99.90
53904;DHT22;39812;52.430;16.936;2022-11-09T11:12:44;13.80;99.90
53904;DHT22;39812;52.430;16.936;2022-11-09T11:15:27;13.90;99.90
53904;DHT22;39812;52.430;16.936;2022-11-09T11:18:17;13.80;99.90
53904;DHT22;39812;52.430;16.936;2022-11-09T11:20:44;13.80;99.90
53904;DHT22;39812;52.430;16.936;2022-11-09T11:23:21;13.80;99.90
53904;DHT22;39812;52.430;16.936;2022-11-09T11:26:02;13.70;99.90
53904;DHT22;39812;52.430;16.936;2022-11-09T11:28:47;13.90;99.90
53904;DHT22;39812;52.430;16.936;2022-11-09T11:31:16;13.80;99.90
53904;DHT22;39812;52.430;16.936;2022-11-09T11:33:41;13.90;99.90
53904;DHT22;39812;52.430;16.936;2022-11-09T11:42:16;14.10;99.90
53904;DHT22;39812;52.430;16.936;2022-11-09T11:45:10;13.90;99.90
53904;DHT22;39812;52.430;16.936;2022-11-09T11:56:31;14.10;99.90
53904;DHT22;39812;52.430;16.936;2022-11-09T11:59:23;14.30;99.90
53904;DHT22;39812;52.430;16.936;2022-11-09T12:02:20;14.50;99.90
53904;DHT22;39812;52.430;16.936;2022-11-09T12:05:08;14.70;99.90
53904;DHT22;39812;52.430;16.936;2022-11-09T12:16:30;14.80;99.90
53904;DHT22;39812;52.430;16.936;2022-11-09T12:19:17;14.80;99.90
53904;DHT22;39812;52.430;16.936;2022-11-09T12:22:00;14.70;99.90
53904;DHT22;39812;52.430;16.936;2022-11-09T12:27:40;14.60;99.90
53904;DHT22;39812;52.430;16.936;2022-11-09T12:30:17;14.60;99.90
53904;DHT22;39812;52.430;16.936;2022-11-09T12:32:58;14.60;99.90
53904;DHT22;39812;52.430;16.936;2022-11-09T12:35:46;14.70;99.90
53904;DHT22;39812;52.430;16.936;2022-11-09T12:38:17;14.30;99.90
53904;DHT22;39812;52.430;16.936;2022-11-09T12:40:49;14.40;99.90
53904;DHT22;39812;52.430;16.936;2022-11-09T12:43:38;14.40;99.90
53904;DHT22;39812;52.430;16.936;2022-11-09T12:46:05;14.20;99.90
53904;DHT22;39812;52.430;16.936;2022-11-09T12:48:33;14.10;99.90
53904;DHT22;39812;52.430;16.936;2022-11-09T12:51:02;14.10;99.90
53904;DHT22;39812;52.430;16.936;2022-11-09T12:53:32;14.00;99.90
53904;DHT22;39812;52.430;16.936;2022-11-09T12:55:59;13.90;99.90
53904;DHT22;39812;52.430;16.936;2022-11-09T12:58:28;13.90;99.90
53904;DHT22;39812;52.430;16.936;2022-11-09T13:00:59;13.90;99.90
53904;DHT22;39812;52.430;16.936;2022-11-09T13:03:29;13.90;99.90
53904;DHT22;39812;52.430;16.936;2022-11-09T13:06:24;13.80;99.90
53904;DHT22;39812;52.430;16.936;2022-11-09T13:09:05;13.70;99.90
53904;DHT22;39812;52.430;16.936;2022-11-09T13:16:48;13.40;99.90
53904;DHT22;39812;52.430;16.936;2022-11-09T13:24:54;13.20;99.90
53904;DHT22;39812;52.430;16.936;2022-11-09T13:27:42;13.20;99.90
53904;DHT22;39812;52.430;16.936;2022-11-09T13:38:22;13.10;99.90
53904;DHT22;39812;52.430;16.936;2022-11-09T13:43:26;13.00;99.90
53904;DHT22;39812;52.430;16.936;2022-11-09T13:46:01;13.00;99.90
53904;DHT22;39812;52.430;16.936;2022-11-09T13:48:44;13.00;99.90
53904;DHT22;39812;52.430;16.936;2022-11-09T13:51:37;13.00;99.90
53904;DHT22;39812;52.430;16.936;2022-11-09T13:59:27;12.90;99.90
53904;DHT22;39812;52.430;16.936;2022-11-09T14:01:59;13.00;99.90
53904;DHT22;39812;52.430;16.936;2022-11-09T14:09:26;12.90;99.90
53904;DHT22;39812;52.430;16.936;2022-11-09T14:12:06;12.90;99.90
53904;DHT22;39812;52.430;16.936;2022-11-09T14:14:51;12.90;99.90
53904;DHT22;39812;52.430;16.936;2022-11-09T14:17:28;12.80;99.90
53904;DHT22;39812;52.430;16.936;2022-11-09T14:20:28;12.90;99.90
53904;DHT22;39812;52.430;16.936;2022-11-09T14:22:57;12.80;99.90
53904;DHT22;39812;52.430;16.936;2022-11-09T14:25:23;12.90;99.90
53904;DHT22;39812;52.430;16.936;2022-11-09T14:27:51;12.80;99.90
53904;DHT22;39812;52.430;16.936;2022-11-09T14:30:27;12.80;99.90
53904;DHT22;39812;52.430;16.936;2022-11-09T14:32:54;12.70;99.90
53904;DHT22;39812;52.430;16.936;2022-11-09T14:35:29;12.70;99.90
53904;DHT22;39812;52.430;16.936;2022-11-09T14:37:59;12.60;99.90
53904;DHT22;39812;52.430;16.936;2022-11-09T14:40:28;12.60;99.90
53904;DHT22;39812;52.430;16.936;2022-11-09T14:42:57;12.60;99.90
53904;DHT22;39812;52.430;16.936;2022-11-09T14:45:25;12.50;99.90
53904;DHT22;39812;52.430;16.936;2022-11-09T14:47:54;12.50;99.90
53904;DHT22;39812;52.430;16.936;2022-11-09T14:50:31;12.50;99.90
53904;DHT22;39812;52.430;16.936;2022-11-09T14:52:58;12.40;99.90
53904;DHT22;39812;52.430;16.936;2022-11-09T14:55:26;12.50;99.90
53904;DHT22;39812;52.430;16.936;2022-11-09T14:57:54;12.50;99.90
53904;DHT22;39812;52.430;16.936;2022-11-09T15:02:53;12.50;99.90
53904;DHT22;39812;52.430;16.936;2022-11-09T15:07:59;12.50;99.90
53904;DHT22;39812;52.430;16.936;2022-11-09T15:10:26;12.40;99.90
53904;DHT22;39812;52.430;16.936;2022-11-09T15:12:56;12.30;99.90
53904;DHT22;39812;52.430;16.936;2022-11-09T15:15:25;12.30;99.90
53904;DHT22;39812;52.430;16.936;2022-11-09T15:17:52;12.30;99.90
53904;DHT22;39812;52.430;16.936;2022-11-09T15:22:52;12.20;99.90
53904;DHT22;39812;52.430;16.936;2022-11-09T15:30:45;12.00;99.90
53904;DHT22;39812;52.430;16.936;2022-11-09T15:33:28;12.00;99.90
53904;DHT22;39812;52.430;16.936;2022-11-09T15:36:23;11.90;99.90
53904;DHT22;39812;52.430;16.936;2022-11-09T15:39:05;11.90;99.90
53904;DHT22;39812;52.430;16.936;2022-11-09T15:41:33;11.80;99.90
53904;DHT22;39812;52.430;16.936;2022-11-09T15:43:59;11.80;99.90
53904;DHT22;39812;52.430;16.936;2022-11-09T15:46:48;11.80;99.90
53904;DHT22;39812;52.430;16.936;2022-11-09T15:49:21;11.70;99.90
53904;DHT22;39812;52.430;16.936;2022-11-09T15:51:48;11.70;99.90
53904;DHT22;39812;52.430;16.936;2022-11-09T15:54:14;11.60;99.90
53904;DHT22;39812;52.430;16.936;2022-11-09T15:56:40;11.60;99.90
53904;DHT22;39812;52.430;16.936;2022-11-09T15:59:07;11.50;99.90
53904;DHT22;39812;52.430;16.936;2022-11-09T16:01:36;11.50;99.90
53904;DHT22;39812;52.430;16.936;2022-11-09T16:04:03;11.40;99.90
53904;DHT22;39812;52.430;16.936;2022-11-09T16:06:28;11.30;99.90
53904;DHT22;39812;52.430;16.936;2022-11-09T16:08:54;11.30;99.90
53904;DHT22;39812;52.430;16.936;2022-11-09T16:11:19;11.20;99.90
53904;DHT22;39812;52.430;16.936;2022-11-09T16:13:45;11.20;99.90
53904;DHT22;39812;52.430;16.936;2022-11-09T16:16:12;11.10;99.90
53904;DHT22;39812;52.430;16.936;2022-11-09T16:18:38;11.10;99.90
53904;DHT22;39812;52.430;16.936;2022-11-09T16:21:12;11.00;99.90
53904;DHT22;39812;52.430;16.936;2022-11-09T16:23:38;11.00;99.90
53904;DHT22;39812;52.430;16.936;2022-11-09T16:26:06;11.00;99.90
53904;DHT22;39812;52.430;16.936;2022-11-09T16:28:31;11.00;99.90
53904;DHT22;39812;52.430;16.936;2022-11-09T16:30:57;10.90;99.90
53904;DHT22;39812;52.430;16.936;2022-11-09T16:33:22;10.90;99.90
53904;DHT22;39812;52.430;16.936;2022-11-09T16:35:48;10.90;99.90
53904;DHT22;39812;52.430;16.936;2022-11-09T16:38:14;11.00;99.90
53904;DHT22;39812;52.430;16.936;2022-11-09T16:40:39;10.90;99.90
53904;DHT22;39812;52.430;16.936;2022-11-09T16:43:05;10.90;99.90
53904;DHT22;39812;52.430;16.936;2022-11-09T16:45:30;10.90;99.90
53904;DHT22;39812;52.430;16.936;2022-11-09T16:47:56;10.90;99.90
53904;DHT22;39812;52.430;16.936;2022-11-09T16:50:22;11.00;99.90
53904;DHT22;39812;52.430;16.936;2022-11-09T16:52:48;11.00;99.90
53904;DHT22;39812;52.430;16.936;2022-11-09T16:55:13;11.10;99.90
53904;DHT22;39812;52.430;16.936;2022-11-09T16:57:39;11.00;99.90
53904;DHT22;39812;52.430;16.936;2022-11-09T17:00:05;11.00;99.90
53904;DHT22;39812;52.430;16.936;2022-11-09T17:02:31;11.10;99.90
53904;DHT22;39812;52.430;16.936;2022-11-09T17:04:57;11.10;99.90